sensor_id;sensor_type;location;lat;lon;timestamp;temperature;humidity
6407;DHT22;3236;51.022;6.818;2024-01-11T00:00:03;-6.00;99.90
6407;DHT22;3236;51.022;6.818;2024-01-11T00:02:31;-6.10;99.90
6407;DHT22;3236;51.022;6.818;2024-01-11T00:04:59;-6.30;99.90
6407;DHT22;3236;51.022;6.818;2024-01-11T00:07:28;-6.10;99.90
6407;DHT22;3236;51.022;6.818;2024-01-11T00:09:57;-6.50;99.90
6407;DHT22;3236;51.022;6.818;2024-01-11T00:12:24;-6.30;99.90
6407;DHT22;3236;51.022;6.818;2024-01-11T00:14:51;-6.20;99.90
6407;DHT22;3236;51.022;6.818;2024-01-11T00:17:18;-6.40;99.90
6407;DHT22;3236;51.022;6.818;2024-01-11T00:19:46;-6.70;99.90
6407;DHT22;3236;51.022;6.818;2024-01-11T00:22:14;-6.30;99.90
6407;DHT22;3236;51.022;6.818;2024-01-11T00:24:41;-6.30;99.90
6407;DHT22;3236;51.022;6.818;2024-01-11T00:27:10;-6.40;99.90
6407;DHT22;3236;51.022;6.818;2024-01-11T00:32:13;-6.30;99.90
6407;DHT22;3236;51.022;6.818;2024-01-11T00:34:40;-6.30;99.90
6407;DHT22;3236;51.022;6.818;2024-01-11T00:37:07;-5.60;99.90
6407;DHT22;3236;51.022;6.818;2024-01-11T00:39:34;-6.20;99.90
6407;DHT22;3236;51.022;6.818;2024-01-11T00:42:01;-6.50;99.90
6407;DHT22;3236;51.022;6.818;2024-01-11T00:44:30;-6.40;99.90
6407;DHT22;3236;51.022;6.818;2024-01-11T00:46:57;-6.30;99.90
6407;DHT22;3236;51.022;6.818;2024-01-11T00:49:24;-6.30;99.90
6407;DHT22;3236;51.022;6.818;2024-01-11T00:54:18;-6.20;99.90
6407;DHT22;3236;51.022;6.818;2024-01-11T00:56:45;-6.40;99.90
6407;DHT22;3236;51.022;6.818;2024-01-11T00:59:12;-6.50;99.90
6407;DHT22;3236;51.022;6.818;2024-01-11T01:01:48;-6.60;99.90
6407;DHT22;3236;51.022;6.818;2024-01-11T01:04:15;-6.30;99.90
6407;DHT22;3236;51.022;6.818;2024-01-11T01:06:43;-6.40;99.90
6407;DHT22;3236;51.022;6.818;2024-01-11T01:11:37;-6.70;99.90
6407;DHT22;3236;51.022;6.818;2024-01-11T01:14:04;-6.70;99.90
6407;DHT22;3236;51.022;6.818;2024-01-11T01:16:32;-6.40;99.90
6407;DHT22;3236;51.022;6.818;2024-01-11T01:19:00;-6.20;99.90
6407;DHT22;3236;51.022;6.818;2024-01-11T01:21:27;-6.30;99.90
6407;DHT22;3236;51.022;6.818;2024-01-11T01:23:54;-5.60;99.90
6407;DHT22;3236;51.022;6.818;2024-01-11T01:26:21;-6.30;99.90
6407;DHT22;3236;51.022;6.818;2024-01-11T01:28:48;-6.10;99.90
6407;DHT22;3236;51.022;6.818;2024-01-11T01:31:16;-6.30;99.90
6407;DHT22;3236;51.022;6.818;2024-01-11T01:33:43;-6.30;99.90
6407;DHT22;3236;51.022;6.818;2024-01-11T01:38:42;-6.30;99.90
6407;DHT22;3236;51.022;6.818;2024-01-11T01:41:09;-6.30;99.90
6407;DHT22;3236;51.022;6.818;2024-01-11T01:43:37;-6.20;99.90
6407;DHT22;3236;51.022;6.818;2024-01-11T01:46:05;-6.10;99.90
6407;DHT22;3236;51.022;6.818;2024-01-11T01:48:33;-6.10;99.90
6407;DHT22;3236;51.022;6.818;2024-01-11T01:51:02;-6.10;99.90
6407;DHT22;3236;51.022;6.818;2024-01-11T01:53:31;-5.90;99.90
6407;DHT22;3236;51.022;6.818;2024-01-11T01:55:58;-6.20;99.90
6407;DHT22;3236;51.022;6.818;2024-01-11T01:58:25;-6.20;99.90
6407;DHT22;3236;51.022;6.818;2024-01-11T02:00:53;-6.30;99.90
6407;DHT22;3236;51.022;6.818;2024-01-11T02:03:20;-6.30;99.90
6407;DHT22;3236;51.022;6.818;2024-01-11T02:05:48;-6.30;99.90
6407;DHT22;3236;51.022;6.818;2024-01-11T02:08:18;-6.40;99.90
6407;DHT22;3236;51.022;6.818;2024-01-11T02:10:47;-6.40;99.90
6407;DHT22;3236;51.022;6.818;2024-01-11T02:13:15;-6.40;99.90
6407;DHT22;3236;51.022;6.818;2024-01-11T02:15:43;-6.50;99.90
6407;DHT22;3236;51.022;6.818;2024-01-11T02:18:11;-6.50;99.90
6407;DHT22;3236;51.022;6.818;2024-01-11T02:23:09;-6.50;99.90
6407;DHT22;3236;51.022;6.818;2024-01-11T02:25:40;-6.30;99.90
6407;DHT22;3236;51.022;6.818;2024-01-11T02:33:05;-6.40;99.90
6407;DHT22;3236;51.022;6.818;2024-01-11T02:35:32;-6.40;99.90
6407;DHT22;3236;51.022;6.818;2024-01-11T02:38:01;-6.10;99.90
6407;DHT22;3236;51.022;6.818;2024-01-11T02:40:29;-6.10;99.90
6407;DHT22;3236;51.022;6.818;2024-01-11T02:42:58;-5.90;99.90
6407;DHT22;3236;51.022;6.818;2024-01-11T02:45:25;-6.20;99.90
6407;DHT22;3236;51.022;6.818;2024-01-11T02:47:52;-6.00;99.90
6407;DHT22;3236;51.022;6.818;2024-01-11T02:50:19;-6.00;99.90
6407;DHT22;3236;51.022;6.818;2024-01-11T02:52:46;-6.20;99.90
6407;DHT22;3236;51.022;6.818;2024-01-11T02:55:14;-6.20;99.90
6407;DHT22;3236;51.022;6.818;2024-01-11T02:57:43;-6.40;99.90
6407;DHT22;3236;51.022;6.818;2024-01-11T03:00:13;-6.60;99.90
6407;DHT22;3236;51.022;6.818;2024-01-11T03:02:41;-6.40;99.90
6407;DHT22;3236;51.022;6.818;2024-01-11T03:07:38;-6.20;99.90
6407;DHT22;3236;51.022;6.818;2024-01-11T03:10:06;-6.40;99.90
6407;DHT22;3236;51.022;6.818;2024-01-11T03:12:33;-6.30;99.90
6407;DHT22;3236;51.022;6.818;2024-01-11T03:15:00;-6.40;99.90
6407;DHT22;3236;51.022;6.818;2024-01-11T03:17:28;-6.40;99.90
6407;DHT22;3236;51.022;6.818;2024-01-11T03:22:23;-6.50;99.90
6407;DHT22;3236;51.022;6.818;2024-01-11T03:29:47;-6.80;99.90
6407;DHT22;3236;51.022;6.818;2024-01-11T03:32:15;-6.20;99.90
6407;DHT22;3236;51.022;6.818;2024-01-11T03:34:43;-6.80;99.90
6407;DHT22;3236;51.022;6.818;2024-01-11T03:37:10;-6.60;99.90
6407;DHT22;3236;51.022;6.818;2024-01-11T03:39:38;-6.60;99.90
6407;DHT22;3236;51.022;6.818;2024-01-11T03:42:05;-6.70;99.90
6407;DHT22;3236;51.022;6.818;2024-01-11T03:44:32;-6.60;99.90
6407;DHT22;3236;51.022;6.818;2024-01-11T03:46:59;-6.60;99.90
6407;DHT22;3236;51.022;6.818;2024-01-11T03:49:26;-6.60;99.90
6407;DHT22;3236;51.022;6.818;2024-01-11T03:51:54;-6.50;99.90
6407;DHT22;3236;51.022;6.818;2024-01-11T03:54:21;-6.40;99.90
6407;DHT22;3236;51.022;6.818;2024-01-11T03:56:48;-6.50;99.90
6407;DHT22;3236;51.022;6.818;2024-01-11T03:59:15;-6.60;99.90
6407;DHT22;3236;51.022;6.818;2024-01-11T04:01:43;-6.20;99.90
6407;DHT22;3236;51.022;6.818;2024-01-11T04:04:10;-6.30;99.90
6407;DHT22;3236;51.022;6.818;2024-01-11T04:06:38;-6.50;99.90
6407;DHT22;3236;51.022;6.818;2024-01-11T04:09:06;-6.60;99.90
6407;DHT22;3236;51.022;6.818;2024-01-11T04:11:32;-6.20;99.90
6407;DHT22;3236;51.022;6.818;2024-01-11T04:16:27;-6.30;99.90
6407;DHT22;3236;51.022;6.818;2024-01-11T04:18:54;-6.40;99.90
6407;DHT22;3236;51.022;6.818;2024-01-11T04:21:22;-6.30;99.90
6407;DHT22;3236;51.022;6.818;2024-01-11T04:23:49;-6.50;99.90
6407;DHT22;3236;51.022;6.818;2024-01-11T04:26:18;-6.40;99.90
6407;DHT22;3236;51.022;6.818;2024-01-11T04:28:45;-6.10;99.90
6407;DHT22;3236;51.022;6.818;2024-01-11T04:31:13;-6.30;99.90
6407;DHT22;3236;51.022;6.818;2024-01-11T04:33:44;-6.30;99.90
6407;DHT22;3236;51.022;6.818;2024-01-11T04:36:11;-6.30;99.90
6407;DHT22;3236;51.022;6.818;2024-01-11T04:38:43;-6.40;99.90
6407;DHT22;3236;51.022;6.818;2024-01-11T04:43:40;-5.60;99.90
6407;DHT22;3236;51.022;6.818;2024-01-11T04:46:13;-6.20;99.90
6407;DHT22;3236;51.022;6.818;2024-01-11T04:48:41;-6.60;99.90
6407;DHT22;3236;51.022;6.818;2024-01-11T04:51:08;-6.20;99.90
6407;DHT22;3236;51.022;6.818;2024-01-11T04:53:38;-6.30;99.90
6407;DHT22;3236;51.022;6.818;2024-01-11T04:56:14;-6.20;99.90
6407;DHT22;3236;51.022;6.818;2024-01-11T04:58:44;-6.50;99.90
6407;DHT22;3236;51.022;6.818;2024-01-11T05:01:12;-6.60;99.90
6407;DHT22;3236;51.022;6.818;2024-01-11T05:03:39;-6.80;99.90
6407;DHT22;3236;51.022;6.818;2024-01-11T05:08:35;-6.30;99.90
6407;DHT22;3236;51.022;6.818;2024-01-11T05:11:02;-6.50;99.90
6407;DHT22;3236;51.022;6.818;2024-01-11T05:16:00;-6.90;99.90
6407;DHT22;3236;51.022;6.818;2024-01-11T05:18:27;-6.50;99.90
6407;DHT22;3236;51.022;6.818;2024-01-11T05:20:54;-6.80;99.90
6407;DHT22;3236;51.022;6.818;2024-01-11T05:23:21;-6.50;99.90
6407;DHT22;3236;51.022;6.818;2024-01-11T05:25:48;-6.50;99.90
6407;DHT22;3236;51.022;6.818;2024-01-11T05:28:18;-5.90;99.90
6407;DHT22;3236;51.022;6.818;2024-01-11T05:30:45;-6.60;99.90
6407;DHT22;3236;51.022;6.818;2024-01-11T05:33:17;-6.80;99.90
6407;DHT22;3236;51.022;6.818;2024-01-11T05:35:44;-6.40;99.90
6407;DHT22;3236;51.022;6.818;2024-01-11T05:38:12;-6.80;99.90
6407;DHT22;3236;51.022;6.818;2024-01-11T05:40:40;-6.60;99.90
6407;DHT22;3236;51.022;6.818;2024-01-11T05:43:07;-7.00;99.90
6407;DHT22;3236;51.022;6.818;2024-01-11T05:45:34;-6.70;99.90
6407;DHT22;3236;51.022;6.818;2024-01-11T05:48:01;-6.80;99.90
6407;DHT22;3236;51.022;6.818;2024-01-11T05:50:30;-6.90;99.90
6407;DHT22;3236;51.022;6.818;2024-01-11T05:52:57;-6.70;99.90
6407;DHT22;3236;51.022;6.818;2024-01-11T05:57:53;-6.90;99.90
6407;DHT22;3236;51.022;6.818;2024-01-11T06:00:20;-6.80;99.90
6407;DHT22;3236;51.022;6.818;2024-01-11T06:02:48;-6.80;99.90
6407;DHT22;3236;51.022;6.818;2024-01-11T06:05:15;-6.90;99.90
6407;DHT22;3236;51.022;6.818;2024-01-11T06:07:43;-6.60;99.90
6407;DHT22;3236;51.022;6.818;2024-01-11T06:10:10;-6.90;99.90
6407;DHT22;3236;51.022;6.818;2024-01-11T06:12:37;-6.90;99.90
6407;DHT22;3236;51.022;6.818;2024-01-11T06:15:05;-6.90;99.90
6407;DHT22;3236;51.022;6.818;2024-01-11T06:17:33;-6.70;99.90
6407;DHT22;3236;51.022;6.818;2024-01-11T06:20:00;-6.60;99.90
6407;DHT22;3236;51.022;6.818;2024-01-11T06:22:27;-6.70;99.90
6407;DHT22;3236;51.022;6.818;2024-01-11T06:24:56;-6.90;99.90
6407;DHT22;3236;51.022;6.818;2024-01-11T06:29:52;-6.60;99.90
6407;DHT22;3236;51.022;6.818;2024-01-11T06:32:30;-6.90;99.90
6407;DHT22;3236;51.022;6.818;2024-01-11T06:35:00;-6.60;99.90
6407;DHT22;3236;51.022;6.818;2024-01-11T06:39:56;-6.90;99.90
6407;DHT22;3236;51.022;6.818;2024-01-11T06:42:23;-7.00;99.90
6407;DHT22;3236;51.022;6.818;2024-01-11T06:44:50;-6.90;99.90
6407;DHT22;3236;51.022;6.818;2024-01-11T06:47:17;-6.70;99.90
6407;DHT22;3236;51.022;6.818;2024-01-11T06:49:45;-6.90;99.90
6407;DHT22;3236;51.022;6.818;2024-01-11T06:54:40;-6.90;99.90
6407;DHT22;3236;51.022;6.818;2024-01-11T06:57:08;-6.80;99.90
6407;DHT22;3236;51.022;6.818;2024-01-11T07:02:03;-6.80;99.90
6407;DHT22;3236;51.022;6.818;2024-01-11T07:06:58;-6.90;99.90
6407;DHT22;3236;51.022;6.818;2024-01-11T07:09:25;-6.90;99.90
6407;DHT22;3236;51.022;6.818;2024-01-11T07:11:52;-7.00;99.90
6407;DHT22;3236;51.022;6.818;2024-01-11T07:14:21;-6.90;99.90
6407;DHT22;3236;51.022;6.818;2024-01-11T07:19:20;-6.70;99.90
6407;DHT22;3236;51.022;6.818;2024-01-11T07:21:52;-7.20;99.90
6407;DHT22;3236;51.022;6.818;2024-01-11T07:29:20;-6.80;99.90
6407;DHT22;3236;51.022;6.818;2024-01-11T07:34:19;-6.40;99.90
6407;DHT22;3236;51.022;6.818;2024-01-11T07:36:46;-6.90;99.90
6407;DHT22;3236;51.022;6.818;2024-01-11T07:39:13;-7.00;99.90
6407;DHT22;3236;51.022;6.818;2024-01-11T07:41:41;-6.60;99.90
6407;DHT22;3236;51.022;6.818;2024-01-11T07:46:37;-7.00;99.90
6407;DHT22;3236;51.022;6.818;2024-01-11T07:49:04;-7.10;99.90
6407;DHT22;3236;51.022;6.818;2024-01-11T07:51:31;-7.10;99.90
6407;DHT22;3236;51.022;6.818;2024-01-11T07:54:00;-7.20;99.90
6407;DHT22;3236;51.022;6.818;2024-01-11T07:56:28;-7.50;99.90
6407;DHT22;3236;51.022;6.818;2024-01-11T07:58:55;-7.10;99.90
6407;DHT22;3236;51.022;6.818;2024-01-11T08:01:22;-7.10;99.90
6407;DHT22;3236;51.022;6.818;2024-01-11T08:03:54;-7.30;99.90
6407;DHT22;3236;51.022;6.818;2024-01-11T08:06:21;-7.10;99.90
6407;DHT22;3236;51.022;6.818;2024-01-11T08:08:48;-7.00;99.90
6407;DHT22;3236;51.022;6.818;2024-01-11T08:11:17;-6.90;99.90
6407;DHT22;3236;51.022;6.818;2024-01-11T08:13:45;-7.00;99.90
6407;DHT22;3236;51.022;6.818;2024-01-11T08:16:15;-6.60;99.90
6407;DHT22;3236;51.022;6.818;2024-01-11T08:18:43;-6.90;99.90
6407;DHT22;3236;51.022;6.818;2024-01-11T08:21:15;-6.00;99.90
6407;DHT22;3236;51.022;6.818;2024-01-11T08:23:43;-6.60;99.90
6407;DHT22;3236;51.022;6.818;2024-01-11T08:26:11;-6.70;99.90
6407;DHT22;3236;51.022;6.818;2024-01-11T08:28:39;-6.60;99.90
6407;DHT22;3236;51.022;6.818;2024-01-11T08:33:34;-6.30;99.90
6407;DHT22;3236;51.022;6.818;2024-01-11T08:36:07;-6.20;99.90
6407;DHT22;3236;51.022;6.818;2024-01-11T08:38:35;-6.10;99.90
6407;DHT22;3236;51.022;6.818;2024-01-11T08:41:02;-6.30;99.90
6407;DHT22;3236;51.022;6.818;2024-01-11T08:43:30;-6.10;99.90
6407;DHT22;3236;51.022;6.818;2024-01-11T08:45:57;-6.00;99.90
6407;DHT22;3236;51.022;6.818;2024-01-11T08:48:24;-6.00;99.90
6407;DHT22;3236;51.022;6.818;2024-01-11T08:50:51;-5.90;99.90
6407;DHT22;3236;51.022;6.818;2024-01-11T08:53:18;-5.80;99.90
6407;DHT22;3236;51.022;6.818;2024-01-11T08:55:47;-5.60;99.90
6407;DHT22;3236;51.022;6.818;2024-01-11T08:58:14;-5.50;99.90
6407;DHT22;3236;51.022;6.818;2024-01-11T09:03:09;-5.40;99.90
6407;DHT22;3236;51.022;6.818;2024-01-11T09:05:37;-5.40;99.90
6407;DHT22;3236;51.022;6.818;2024-01-11T09:10:33;-5.20;99.90
6407;DHT22;3236;51.022;6.818;2024-01-11T09:13:02;-5.10;99.90
6407;DHT22;3236;51.022;6.818;2024-01-11T09:17:58;-5.10;99.90
6407;DHT22;3236;51.022;6.818;2024-01-11T09:20:25;-4.50;99.90
6407;DHT22;3236;51.022;6.818;2024-01-11T09:22:52;-5.20;99.90
6407;DHT22;3236;51.022;6.818;2024-01-11T09:25:20;-5.00;99.90
6407;DHT22;3236;51.022;6.818;2024-01-11T09:27:47;-4.80;99.90
6407;DHT22;3236;51.022;6.818;2024-01-11T09:30:16;-4.80;99.90
6407;DHT22;3236;51.022;6.818;2024-01-11T09:32:47;-4.80;99.90
6407;DHT22;3236;51.022;6.818;2024-01-11T09:35:14;-4.60;99.90
6407;DHT22;3236;51.022;6.818;2024-01-11T09:37:41;-4.70;99.90
6407;DHT22;3236;51.022;6.818;2024-01-11T09:40:11;-4.60;99.90
6407;DHT22;3236;51.022;6.818;2024-01-11T09:42:39;-4.30;99.90
6407;DHT22;3236;51.022;6.818;2024-01-11T09:45:09;-4.40;99.90
6407;DHT22;3236;51.022;6.818;2024-01-11T09:47:39;-4.20;99.90
6407;DHT22;3236;51.022;6.818;2024-01-11T09:50:08;-4.20;99.90
6407;DHT22;3236;51.022;6.818;2024-01-11T09:52:37;-4.00;99.90
6407;DHT22;3236;51.022;6.818;2024-01-11T09:55:10;-4.00;99.90
6407;DHT22;3236;51.022;6.818;2024-01-11T09:57:43;-3.90;99.90
6407;DHT22;3236;51.022;6.818;2024-01-11T10:00:13;-4.20;99.90
6407;DHT22;3236;51.022;6.818;2024-01-11T10:02:45;-3.70;99.90
6407;DHT22;3236;51.022;6.818;2024-01-11T10:05:13;-3.90;99.90
6407;DHT22;3236;51.022;6.818;2024-01-11T10:07:40;-3.50;99.90
6407;DHT22;3236;51.022;6.818;2024-01-11T10:10:08;-3.70;99.90
6407;DHT22;3236;51.022;6.818;2024-01-11T10:12:36;-3.80;99.90
6407;DHT22;3236;51.022;6.818;2024-01-11T10:15:07;-3.50;99.90
6407;DHT22;3236;51.022;6.818;2024-01-11T10:17:41;-3.50;99.90
6407;DHT22;3236;51.022;6.818;2024-01-11T10:20:12;-3.50;99.90
6407;DHT22;3236;51.022;6.818;2024-01-11T10:22:40;-2.80;99.90
6407;DHT22;3236;51.022;6.818;2024-01-11T10:25:11;-3.40;99.90
6407;DHT22;3236;51.022;6.818;2024-01-11T10:27:40;-3.10;99.90
6407;DHT22;3236;51.022;6.818;2024-01-11T10:30:09;-3.10;99.90
6407;DHT22;3236;51.022;6.818;2024-01-11T10:32:38;-3.00;99.90
6407;DHT22;3236;51.022;6.818;2024-01-11T10:35:06;-3.00;99.90
6407;DHT22;3236;51.022;6.818;2024-01-11T10:37:34;-3.00;99.90
6407;DHT22;3236;51.022;6.818;2024-01-11T10:40:06;-3.20;99.90
6407;DHT22;3236;51.022;6.818;2024-01-11T10:42:38;-2.80;99.90
6407;DHT22;3236;51.022;6.818;2024-01-11T10:45:12;-3.20;99.90
6407;DHT22;3236;51.022;6.818;2024-01-11T10:47:45;-3.00;99.90
6407;DHT22;3236;51.022;6.818;2024-01-11T10:50:16;-3.00;99.90
6407;DHT22;3236;51.022;6.818;2024-01-11T10:53:02;-2.70;99.90
6407;DHT22;3236;51.022;6.818;2024-01-11T10:55:32;-2.90;99.90
6407;DHT22;3236;51.022;6.818;2024-01-11T10:58:00;-2.70;99.90
6407;DHT22;3236;51.022;6.818;2024-01-11T11:00:28;-2.30;99.90
6407;DHT22;3236;51.022;6.818;2024-01-11T11:02:56;-2.10;99.90
6407;DHT22;3236;51.022;6.818;2024-01-11T11:05:35;-1.90;99.90
6407;DHT22;3236;51.022;6.818;2024-01-11T11:08:05;-1.90;99.90
6407;DHT22;3236;51.022;6.818;2024-01-11T11:10:34;-1.80;99.90
6407;DHT22;3236;51.022;6.818;2024-01-11T11:13:02;-1.40;99.90
6407;DHT22;3236;51.022;6.818;2024-01-11T11:15:30;-0.40;99.90
6407;DHT22;3236;51.022;6.818;2024-01-11T11:17:58;0.20;99.90
6407;DHT22;3236;51.022;6.818;2024-01-11T11:20:26;1.00;99.90
6407;DHT22;3236;51.022;6.818;2024-01-11T11:23:05;2.00;99.90
6407;DHT22;3236;51.022;6.818;2024-01-11T11:25:34;2.20;99.90
6407;DHT22;3236;51.022;6.818;2024-01-11T11:30:30;3.50;99.90
6407;DHT22;3236;51.022;6.818;2024-01-11T11:32:57;3.90;99.90
6407;DHT22;3236;51.022;6.818;2024-01-11T11:35:24;4.20;99.90
6407;DHT22;3236;51.022;6.818;2024-01-11T11:37:55;3.90;99.90
6407;DHT22;3236;51.022;6.818;2024-01-11T11:40:33;4.40;99.90
6407;DHT22;3236;51.022;6.818;2024-01-11T11:43:05;4.90;99.90
6407;DHT22;3236;51.022;6.818;2024-01-11T11:45:32;5.80;44.60
6407;DHT22;3236;51.022;6.818;2024-01-11T11:47:59;6.10;99.90
6407;DHT22;3236;51.022;6.818;2024-01-11T11:50:27;5.60;1.00
6407;DHT22;3236;51.022;6.818;2024-01-11T11:52:57;6.00;99.90
6407;DHT22;3236;51.022;6.818;2024-01-11T11:55:28;6.00;99.90
6407;DHT22;3236;51.022;6.818;2024-01-11T11:57:58;6.40;24.80
6407;DHT22;3236;51.022;6.818;2024-01-11T12:03:01;5.90;99.90
6407;DHT22;3236;51.022;6.818;2024-01-11T12:10:34;6.90;97.80
6407;DHT22;3236;51.022;6.818;2024-01-11T12:13:07;6.80;1.00
6407;DHT22;3236;51.022;6.818;2024-01-11T12:15:37;7.40;1.00
6407;DHT22;3236;51.022;6.818;2024-01-11T12:18:04;7.40;99.90
6407;DHT22;3236;51.022;6.818;2024-01-11T12:25:31;8.50;99.90
6407;DHT22;3236;51.022;6.818;2024-01-11T12:28:03;8.40;99.90
6407;DHT22;3236;51.022;6.818;2024-01-11T12:30:36;9.20;99.90
6407;DHT22;3236;51.022;6.818;2024-01-11T12:33:05;8.60;99.90
6407;DHT22;3236;51.022;6.818;2024-01-11T12:35:41;8.20;99.90
6407;DHT22;3236;51.022;6.818;2024-01-11T12:38:09;8.70;99.90
6407;DHT22;3236;51.022;6.818;2024-01-11T12:40:37;8.20;99.30
6407;DHT22;3236;51.022;6.818;2024-01-11T12:43:08;8.10;15.80
6407;DHT22;3236;51.022;6.818;2024-01-11T12:45:36;8.00;47.30
6407;DHT22;3236;51.022;6.818;2024-01-11T12:48:07;7.70;29.50
6407;DHT22;3236;51.022;6.818;2024-01-11T12:50:35;7.70;1.00
6407;DHT22;3236;51.022;6.818;2024-01-11T12:53:10;7.70;4.40
6407;DHT22;3236;51.022;6.818;2024-01-11T12:55:45;8.20;1.00
6407;DHT22;3236;51.022;6.818;2024-01-11T12:58:12;7.80;1.00
6407;DHT22;3236;51.022;6.818;2024-01-11T13:00:41;7.50;99.90
6407;DHT22;3236;51.022;6.818;2024-01-11T13:05:36;7.60;1.00
6407;DHT22;3236;51.022;6.818;2024-01-11T13:08:08;7.30;99.90
6407;DHT22;3236;51.022;6.818;2024-01-11T13:13:03;7.00;1.00
6407;DHT22;3236;51.022;6.818;2024-01-11T13:17:59;7.30;1.00
6407;DHT22;3236;51.022;6.818;2024-01-11T13:20:27;7.40;99.90
6407;DHT22;3236;51.022;6.818;2024-01-11T13:23:11;8.20;99.90
6407;DHT22;3236;51.022;6.818;2024-01-11T13:25:39;8.60;1.00
6407;DHT22;3236;51.022;6.818;2024-01-11T13:33:06;8.90;99.90
6407;DHT22;3236;51.022;6.818;2024-01-11T13:38:02;8.10;99.90
6407;DHT22;3236;51.022;6.818;2024-01-11T13:40:30;8.50;99.90
6407;DHT22;3236;51.022;6.818;2024-01-11T13:43:00;8.80;99.90
6407;DHT22;3236;51.022;6.818;2024-01-11T13:45:27;7.80;99.90
6407;DHT22;3236;51.022;6.818;2024-01-11T13:48:01;7.70;99.90
6407;DHT22;3236;51.022;6.818;2024-01-11T13:50:30;7.20;99.90
6407;DHT22;3236;51.022;6.818;2024-01-11T13:52:58;7.40;99.90
6407;DHT22;3236;51.022;6.818;2024-01-11T13:55:26;8.10;99.90
6407;DHT22;3236;51.022;6.818;2024-01-11T13:57:53;8.70;99.90
6407;DHT22;3236;51.022;6.818;2024-01-11T14:00:20;8.60;99.90
6407;DHT22;3236;51.022;6.818;2024-01-11T14:05:18;8.10;99.90
6407;DHT22;3236;51.022;6.818;2024-01-11T14:10:20;7.10;99.90
6407;DHT22;3236;51.022;6.818;2024-01-11T14:12:47;6.90;99.90
6407;DHT22;3236;51.022;6.818;2024-01-11T14:15:15;7.50;99.90
6407;DHT22;3236;51.022;6.818;2024-01-11T14:17:42;7.60;99.90
6407;DHT22;3236;51.022;6.818;2024-01-11T14:20:10;6.90;99.90
6407;DHT22;3236;51.022;6.818;2024-01-11T14:27:37;7.00;99.90
6407;DHT22;3236;51.022;6.818;2024-01-11T14:30:05;6.60;99.90
6407;DHT22;3236;51.022;6.818;2024-01-11T14:35:00;5.90;99.90
6407;DHT22;3236;51.022;6.818;2024-01-11T14:37:30;5.60;99.90
6407;DHT22;3236;51.022;6.818;2024-01-11T14:39:58;5.10;99.90
6407;DHT22;3236;51.022;6.818;2024-01-11T14:42:27;5.20;99.90
6407;DHT22;3236;51.022;6.818;2024-01-11T14:44:55;5.30;99.90
6407;DHT22;3236;51.022;6.818;2024-01-11T14:49:51;5.20;99.90
6407;DHT22;3236;51.022;6.818;2024-01-11T14:52:21;5.30;99.90
6407;DHT22;3236;51.022;6.818;2024-01-11T14:54:48;5.00;99.90
6407;DHT22;3236;51.022;6.818;2024-01-11T14:57:16;4.60;99.90
6407;DHT22;3236;51.022;6.818;2024-01-11T14:59:44;4.20;99.90
6407;DHT22;3236;51.022;6.818;2024-01-11T15:02:11;3.20;99.90
6407;DHT22;3236;51.022;6.818;2024-01-11T15:09:34;2.00;99.90
6407;DHT22;3236;51.022;6.818;2024-01-11T15:12:02;2.00;99.90
6407;DHT22;3236;51.022;6.818;2024-01-11T15:16:58;1.40;99.90
6407;DHT22;3236;51.022;6.818;2024-01-11T15:19:25;1.00;99.90
6407;DHT22;3236;51.022;6.818;2024-01-11T15:24:20;0.70;99.90
6407;DHT22;3236;51.022;6.818;2024-01-11T15:26:47;0.70;1.00
6407;DHT22;3236;51.022;6.818;2024-01-11T15:29:14;0.50;1.00
6407;DHT22;3236;51.022;6.818;2024-01-11T15:31:42;0.50;1.00
6407;DHT22;3236;51.022;6.818;2024-01-11T15:34:12;0.50;59.10
6407;DHT22;3236;51.022;6.818;2024-01-11T15:36:39;0.30;99.90
6407;DHT22;3236;51.022;6.818;2024-01-11T15:39:07;0.20;99.90
6407;DHT22;3236;51.022;6.818;2024-01-11T15:41:34;0.20;99.90
6407;DHT22;3236;51.022;6.818;2024-01-11T15:44:04;-0.10;99.90
6407;DHT22;3236;51.022;6.818;2024-01-11T15:46:32;-0.30;99.90
6407;DHT22;3236;51.022;6.818;2024-01-11T15:51:29;-0.30;99.90
6407;DHT22;3236;51.022;6.818;2024-01-11T15:53:56;-0.50;99.90
6407;DHT22;3236;51.022;6.818;2024-01-11T15:56:23;-0.20;99.90
6407;DHT22;3236;51.022;6.818;2024-01-11T15:58:50;-0.50;99.90
6407;DHT22;3236;51.022;6.818;2024-01-11T16:01:20;-0.60;99.90
6407;DHT22;3236;51.022;6.818;2024-01-11T16:03:48;-0.80;99.90
6407;DHT22;3236;51.022;6.818;2024-01-11T16:08:47;-0.50;99.90
6407;DHT22;3236;51.022;6.818;2024-01-11T16:11:20;-0.90;99.90
6407;DHT22;3236;51.022;6.818;2024-01-11T16:13:48;-0.50;99.90
6407;DHT22;3236;51.022;6.818;2024-01-11T16:16:16;-0.80;99.90
6407;DHT22;3236;51.022;6.818;2024-01-11T16:18:44;-0.50;99.90
6407;DHT22;3236;51.022;6.818;2024-01-11T16:21:11;-0.50;99.90
6407;DHT22;3236;51.022;6.818;2024-01-11T16:23:38;-0.50;99.90
6407;DHT22;3236;51.022;6.818;2024-01-11T16:26:07;-0.80;99.90
6407;DHT22;3236;51.022;6.818;2024-01-11T16:28:35;-1.00;99.90
6407;DHT22;3236;51.022;6.818;2024-01-11T16:31:02;-0.80;1.00
6407;DHT22;3236;51.022;6.818;2024-01-11T16:33:33;-0.70;1.00
6407;DHT22;3236;51.022;6.818;2024-01-11T16:36:00;-0.90;4.30
6407;DHT22;3236;51.022;6.818;2024-01-11T16:38:28;-0.90;24.60
6407;DHT22;3236;51.022;6.818;2024-01-11T16:40:58;-1.30;83.60
6407;DHT22;3236;51.022;6.818;2024-01-11T16:43:27;-1.30;99.90
6407;DHT22;3236;51.022;6.818;2024-01-11T16:48:23;-1.20;99.90
6407;DHT22;3236;51.022;6.818;2024-01-11T16:50:54;-1.60;99.90
6407;DHT22;3236;51.022;6.818;2024-01-11T16:55:49;-1.10;99.90
6407;DHT22;3236;51.022;6.818;2024-01-11T16:58:16;-1.60;99.90
6407;DHT22;3236;51.022;6.818;2024-01-11T17:00:44;-2.20;99.90
6407;DHT22;3236;51.022;6.818;2024-01-11T17:03:12;-1.40;1.00
6407;DHT22;3236;51.022;6.818;2024-01-11T17:05:39;-1.50;62.50
6407;DHT22;3236;51.022;6.818;2024-01-11T17:08:06;-1.60;99.90
6407;DHT22;3236;51.022;6.818;2024-01-11T17:13:05;-1.50;99.90
6407;DHT22;3236;51.022;6.818;2024-01-11T17:15:32;-0.90;1.00
6407;DHT22;3236;51.022;6.818;2024-01-11T17:18:01;-1.90;1.00
6407;DHT22;3236;51.022;6.818;2024-01-11T17:20:28;-1.60;95.40
6407;DHT22;3236;51.022;6.818;2024-01-11T17:22:55;-1.90;99.90
6407;DHT22;3236;51.022;6.818;2024-01-11T17:25:24;-1.60;99.90
6407;DHT22;3236;51.022;6.818;2024-01-11T17:27:59;-2.10;1.00
6407;DHT22;3236;51.022;6.818;2024-01-11T17:30:30;-1.90;1.00
6407;DHT22;3236;51.022;6.818;2024-01-11T17:32:57;-2.10;99.90
6407;DHT22;3236;51.022;6.818;2024-01-11T17:35:25;-1.90;99.90
6407;DHT22;3236;51.022;6.818;2024-01-11T17:37:52;-1.80;13.10
6407;DHT22;3236;51.022;6.818;2024-01-11T17:40:21;-2.20;99.90
6407;DHT22;3236;51.022;6.818;2024-01-11T17:42:48;-2.30;1.00
6407;DHT22;3236;51.022;6.818;2024-01-11T17:45:15;-2.10;99.90
6407;DHT22;3236;51.022;6.818;2024-01-11T17:47:42;-2.00;84.50
6407;DHT22;3236;51.022;6.818;2024-01-11T17:52:38;-2.30;99.90
6407;DHT22;3236;51.022;6.818;2024-01-11T17:55:08;-2.10;1.00
6407;DHT22;3236;51.022;6.818;2024-01-11T17:57:35;-2.10;99.90
6407;DHT22;3236;51.022;6.818;2024-01-11T18:00:03;-1.90;99.90
6407;DHT22;3236;51.022;6.818;2024-01-11T18:02:30;-2.10;99.90
6407;DHT22;3236;51.022;6.818;2024-01-11T18:04:58;-2.30;15.10
6407;DHT22;3236;51.022;6.818;2024-01-11T18:07:25;-2.10;81.50
6407;DHT22;3236;51.022;6.818;2024-01-11T18:09:54;-1.90;99.90
6407;DHT22;3236;51.022;6.818;2024-01-11T18:17:18;-2.50;99.90
6407;DHT22;3236;51.022;6.818;2024-01-11T18:19:45;-2.30;99.90
6407;DHT22;3236;51.022;6.818;2024-01-11T18:22:12;-2.70;1.00
6407;DHT22;3236;51.022;6.818;2024-01-11T18:24:39;-2.20;54.10
6407;DHT22;3236;51.022;6.818;2024-01-11T18:27:08;-2.20;83.00
6407;DHT22;3236;51.022;6.818;2024-01-11T18:29:35;-1.30;99.90
6407;DHT22;3236;51.022;6.818;2024-01-11T18:32:03;-2.20;99.90
6407;DHT22;3236;51.022;6.818;2024-01-11T18:34:31;-2.00;91.70
6407;DHT22;3236;51.022;6.818;2024-01-11T18:36:58;-2.10;99.90
6407;DHT22;3236;51.022;6.818;2024-01-11T18:39:25;-1.90;99.90
6407;DHT22;3236;51.022;6.818;2024-01-11T18:41:56;-1.80;96.10